首页
METAR-TAF:

METAR-TAF

机场 :

漢堡-芬肯維德機場

Finkenwerder, 德国

纬度: 53-32N, 经度: 009-50E, 海拔: 5米

当前天气观测

该预报发布于28分钟前的06:50 UTC
风速5节,风向西南
温度 2°C
湿度 87%
气压 1021 hPa
能见度10公里或以上
少量云层高于1300英尺
散云层高于2700英尺
多云层高于4800英尺

METAR: EDHI 010650Z 23005KT 9999 FEW013 SCT027 BKN048 02/M00 Q1021

时间: 09:18 (07:18 UTC)

预报

该预报发布于2小时和18分钟前的05:00 UTC
预报有效从01日的 06点(UTC)到 01日的 15点(UTC)
风速6节,风向西转西南
能见度10公里或以上
多云层高于3000英尺
成为
从 01日的 06点(UTC)到 01日的 08点(UTC)
风速11节,风向西
几率 30% :
短暂存在
从 01日的 06点(UTC)到 01日的 09点(UTC)
多云层高于1300英尺

TAF: EDHI 010500Z 0106/0115 24006KT 9999 BKN030 BECMG 0106/0108 26011KT PROB30 TEMPO 0106/0109 BKN013

超过4000个机场的气象观测和天气预报(METAR&TAF报告)。

可查询的气象台以黄色和红色小点在地图上表示。

将鼠标移到小点上方,可查看气象台名称。

然后点击查看天气观测和预报。

如需切换地图:点击带黑十字的绿色按钮放大地图;点击带横线的绿色按钮缩小地图;或者点击绿色箭头查看邻近地区的地图。


METAR-TAF: